Time;durP1;ratioP1;P1;durP2;ratioP2;P2;SDS_P1;SDS_P2;PMS_P1;PMS_P2;Temp;Humidity;BMP_temperature;BMP_pressure;BME280_temperature;BME280_humidity;BME280_pressure;Samples;Min_cycle;Max_cycle;Signal;HPM_P1;HPM_P2
2022/05/22 00:01:14;;;;;;;0.90;0.90;;;23.20;46.80;;;;;;4935005;29;20536;-67
2022/05/22 00:03:45;;;;;;;1.67;1.03;;;23.10;46.30;;;;;;4936134;29;20548;-67
2022/05/22 00:06:16;;;;;;;1.50;1.10;;;23.10;49.00;;;;;;4947388;29;20471;-67
2022/05/22 00:08:47;;;;;;;1.40;1.30;;;23.10;46.70;;;;;;4935932;29;20469;-67
2022/05/22 00:11:19;;;;;;;1.37;1.30;;;23.10;47.00;;;;;;4942112;29;20464;-67
2022/05/22 00:13:50;;;;;;;1.10;1.10;;;23.00;45.70;;;;;;4939259;29;20466;-68
2022/05/22 00:16:40;;;;;;;0.73;0.73;;;22.90;47.00;;;;;;4937400;29;20517;-67
2022/05/22 00:19:15;;;;;;;1.20;1.20;;;23.00;47.00;;;;;;4938190;29;20537;-68
2022/05/22 00:21:46;;;;;;;1.57;1.17;;;22.90;47.60;;;;;;4940655;29;20837;-67
2022/05/22 00:24:18;;;;;;;1.50;1.40;;;22.90;47.30;;;;;;4934111;29;20461;-67
2022/05/22 00:26:50;;;;;;;1.20;1.10;;;22.90;46.50;;;;;;4939595;29;20450;-67
2022/05/22 00:29:21;;;;;;;0.93;0.90;;;22.80;45.60;;;;;;4934522;29;20465;-66
2022/05/22 00:31:52;;;;;;;1.37;1.27;;;22.60;46.50;;;;;;4942057;29;20465;-67
2022/05/22 00:34:23;;;;;;;1.33;1.23;;;22.50;46.20;;;;;;4940165;29;20569;-66
2022/05/22 00:36:54;;;;;;;1.10;1.00;;;22.40;44.60;;;;;;4942203;29;20829;-67
2022/05/22 00:39:26;;;;;;;1.70;1.33;;;22.30;45.90;;;;;;4937674;29;20516;-68
2022/05/22 00:41:59;;;;;;;2.07;1.23;;;22.40;45.90;;;;;;4942095;29;20469;-67
2022/05/22 00:44:30;;;;;;;1.30;1.20;;;22.40;45.50;;;;;;4941863;29;20979;-66
2022/05/22 00:47:01;;;;;;;1.57;1.13;;;22.50;43.30;;;;;;4933011;29;20466;-67
2022/05/22 00:49:35;;;;;;;2.17;1.83;;;22.40;44.70;;;;;;4938909;29;21175;-66
2022/05/22 00:52:15;;;;;;;1.10;1.00;;;22.20;45.00;;;;;;4935680;29;20465;-66
2022/05/22 00:54:57;;;;;;;1.00;1.00;;;22.40;45.40;;;;;;4938470;29;21006;-66
2022/05/22 00:57:32;;;;;;;1.47;1.27;;;22.50;45.90;;;;;;4934731;29;20459;-66
2022/05/22 01:00:09;;;;;;;1.80;1.40;;;22.50;45.30;;;;;;4934254;29;20485;-66
2022/05/22 01:05:28;;;;;;;2.70;1.30;;;22.50;45.40;;;;;;4941655;29;20454;-65
2022/05/22 01:08:01;;;;;;;1.30;1.20;;;22.40;44.40;;;;;;4942165;29;20557;-67
2022/05/22 01:10:37;;;;;;;0.97;0.97;;;22.20;42.20;;;;;;4936423;29;20458;-68
2022/05/22 01:13:10;;;;;;;1.10;1.00;;;22.00;43.00;;;;;;4937070;29;20424;-67
2022/05/22 01:15:42;;;;;;;1.47;1.10;;;22.00;44.80;;;;;;4943317;29;20526;-67
2022/05/22 01:18:12;;;;;;;1.40;1.30;;;22.00;47.10;;;;;;4933780;29;20454;-66
2022/05/22 01:20:48;;;;;;;1.43;1.27;;;21.90;48.80;;;;;;4940590;29;20469;-64
2022/05/22 01:23:21;;;;;;;1.80;1.70;;;21.90;48.70;;;;;;4932539;29;20451;-67
2022/05/22 01:25:52;;;;;;;1.80;1.70;;;21.80;49.30;;;;;;4935919;29;20764;-66
2022/05/22 01:28:23;;;;;;;1.60;1.50;;;21.70;48.60;;;;;;4938081;29;20429;-66
2022/05/22 01:30:56;;;;;;;1.67;1.40;;;21.60;49.50;;;;;;4945229;29;21149;-65
2022/05/22 01:33:27;;;;;;;1.80;1.70;;;21.50;48.90;;;;;;4935594;29;20451;-65
2022/05/22 01:35:58;;;;;;;4.13;1.30;;;21.40;50.50;;;;;;4937238;29;20796;-65
2022/05/22 01:38:32;;;;;;;1.60;1.50;;;21.40;50.10;;;;;;4945525;29;21103;-66
2022/05/22 01:41:03;;;;;;;1.47;1.30;;;21.40;50.10;;;;;;4944375;29;20433;-65
2022/05/22 01:43:35;;;;;;;1.40;1.30;;;21.30;50.50;;;;;;4935117;29;20455;-65
2022/05/22 01:46:05;;;;;;;2.20;1.30;;;21.20;50.30;;;;;;4939128;29;20450;-66
2022/05/22 01:48:36;;;;;;;1.60;1.47;;;21.10;50.50;;;;;;4934521;29;20429;-64
2022/05/22 01:51:09;;;;;;;1.60;1.30;;;21.00;50.60;;;;;;4933858;29;20437;-66
2022/05/22 01:53:41;;;;;;;1.40;1.30;;;20.90;50.10;;;;;;4939242;29;20447;-67
2022/05/22 01:56:12;;;;;;;1.50;1.40;;;20.90;50.10;;;;;;4944289;29;20470;-68
2022/05/22 01:58:43;;;;;;;1.30;1.20;;;20.90;48.70;;;;;;4945415;29;20448;-68
2022/05/22 02:01:14;;;;;;;2.23;1.47;;;20.80;49.70;;;;;;4935193;29;20835;-68
2022/05/22 02:03:45;;;;;;;1.40;1.30;;;20.80;49.70;;;;;;4944198;29;20469;-68
2022/05/22 02:06:15;;;;;;;1.87;1.43;;;20.70;48.80;;;;;;4935367;29;20482;-65
2022/05/22 02:08:46;;;;;;;1.87;1.30;;;20.60;50.40;;;;;;4945305;29;20432;-66
2022/05/22 02:11:17;;;;;;;1.47;1.37;;;20.50;50.50;;;;;;4938329;29;20449;-68
2022/05/22 02:13:48;;;;;;;1.40;1.30;;;20.50;51.30;;;;;;4929981;29;20459;-68
2022/05/22 02:16:19;;;;;;;2.00;1.40;;;20.40;52.90;;;;;;4943685;29;20604;-66
2022/05/22 02:18:50;;;;;;;1.50;1.40;;;20.30;53.20;;;;;;4939164;29;20461;-67
2022/05/22 02:21:20;;;;;;;2.33;1.90;;;20.30;54.00;;;;;;4935052;29;20436;-68
2022/05/22 02:23:53;;;;;;;1.63;1.53;;;20.30;53.90;;;;;;4932076;29;20459;-67
2022/05/22 02:26:23;;;;;;;2.00;1.33;;;20.20;56.30;;;;;;4941578;29;20459;-68
2022/05/22 02:28:54;;;;;;;2.37;2.13;;;20.00;57.10;;;;;;4929518;29;20441;-65
2022/05/22 02:31:25;;;;;;;2.20;2.00;;;19.90;57.20;;;;;;4940556;29;20433;-65
2022/05/22 02:33:56;;;;;;;2.00;1.80;;;19.90;59.10;;;;;;4933524;29;20437;-64
2022/05/22 02:36:27;;;;;;;1.87;1.77;;;19.80;60.40;;;;;;4934955;29;20440;-65
2022/05/22 02:39:00;;;;;;;2.90;1.50;;;19.70;62.00;;;;;;4930502;29;20481;-66
2022/05/22 02:41:30;;;;;;;3.03;2.13;;;19.60;64.20;;;;;;4933257;29;20790;-66
2022/05/22 02:44:01;;;;;;;2.00;1.90;;;19.50;65.80;;;;;;4941609;29;20486;-67
2022/05/22 02:46:36;;;;;;;3.70;2.03;;;19.30;68.40;;;;;;4932061;29;20474;-66
2022/05/22 02:49:07;;;;;;;2.57;2.30;;;19.30;68.40;;;;;;4933813;29;20515;-65
2022/05/22 02:51:39;;;;;;;3.10;2.30;;;19.20;70.20;;;;;;4936763;29;20473;-65
2022/05/22 02:54:11;;;;;;;1.77;1.67;;;19.10;70.90;;;;;;4943506;29;20465;-63
2022/05/22 02:56:43;;;;;;;2.10;2.00;;;19.10;72.60;;;;;;4943262;29;20461;-65
2022/05/22 02:59:13;;;;;;;2.30;2.10;;;19.00;73.60;;;;;;4939024;29;21034;-63
2022/05/22 03:01:44;;;;;;;2.80;2.17;;;18.90;74.10;;;;;;4943400;29;20595;-64
2022/05/22 03:04:16;;;;;;;5.40;2.37;;;18.90;75.60;;;;;;4930712;29;20441;-64
2022/05/22 03:06:47;;;;;;;2.87;2.40;;;18.80;77.00;;;;;;4932528;29;20432;-63
2022/05/22 03:09:20;;;;;;;2.30;2.20;;;18.70;77.90;;;;;;4944256;29;20458;-64
2022/05/22 03:11:51;;;;;;;1.80;1.70;;;18.60;79.10;;;;;;4943083;29;20916;-65
2022/05/22 03:14:22;;;;;;;2.97;2.07;;;18.50;81.80;;;;;;4932161;29;20436;-64
2022/05/22 03:16:53;;;;;;;2.23;1.73;;;18.40;81.50;;;;;;4940535;29;20481;-65
2022/05/22 03:19:24;;;;;;;2.20;1.77;;;18.30;82.60;;;;;;4943772;29;20444;-64
2022/05/22 03:21:55;;;;;;;3.20;2.50;;;18.30;82.50;;;;;;4938301;29;20481;-65
2022/05/22 03:24:27;;;;;;;2.40;2.20;;;18.30;82.20;;;;;;4943851;29;20472;-64
2022/05/22 03:26:59;;;;;;;2.40;2.20;;;18.20;83.30;;;;;;4944627;29;20450;-65
2022/05/22 03:29:30;;;;;;;4.33;2.30;;;18.10;83.30;;;;;;4943809;29;20454;-65
2022/05/22 03:32:01;;;;;;;2.50;2.30;;;18.00;82.60;;;;;;4926493;29;20455;-65
2022/05/22 03:34:32;;;;;;;2.77;1.90;;;17.90;83.50;;;;;;4925458;29;20474;-65
2022/05/22 03:37:04;;;;;;;2.40;2.20;;;17.80;83.50;;;;;;4939695;29;20454;-65
2022/05/22 03:39:37;;;;;;;3.33;2.00;;;17.80;85.10;;;;;;4929355;29;20462;-65
2022/05/22 03:42:10;;;;;;;2.70;2.20;;;17.70;84.10;;;;;;4937405;29;20476;-64
2022/05/22 03:44:43;;;;;;;3.20;2.57;;;17.60;84.70;;;;;;4946864;29;20941;-65
2022/05/22 03:47:14;;;;;;;2.67;2.33;;;17.60;86.00;;;;;;4947066;29;20473;-66
2022/05/22 03:49:48;;;;;;;3.93;2.70;;;17.60;86.20;;;;;;4942431;29;20468;-64
2022/05/22 03:52:19;;;;;;;2.53;2.03;;;17.50;86.70;;;;;;4948574;29;20801;-66
2022/05/22 03:54:51;;;;;;;3.43;2.17;;;17.40;87.00;;;;;;4929858;29;20467;-66
2022/05/22 03:57:22;;;;;;;2.30;2.10;;;17.40;88.70;;;;;;4934641;29;20492;-66
2022/05/22 03:59:52;;;;;;;3.17;2.30;;;17.30;88.90;;;;;;4940271;29;20482;-65
2022/05/22 04:02:23;;;;;;;2.50;2.20;;;17.20;89.50;;;;;;4937630;29;20482;-66
2022/05/22 04:04:54;;;;;;;3.70;2.47;;;17.20;90.10;;;;;;4930561;29;20478;-66
2022/05/22 04:07:25;;;;;;;2.50;2.30;;;17.10;90.60;;;;;;4930780;29;20486;-66
2022/05/22 04:09:58;;;;;;;2.10;1.90;;;17.10;90.80;;;;;;4938625;29;20462;-67
2022/05/22 04:12:29;;;;;;;3.27;2.10;;;17.00;91.00;;;;;;4940860;29;20461;-66
2022/05/22 04:15:00;;;;;;;2.17;1.90;;;17.00;91.20;;;;;;4934279;29;20533;-67
2022/05/22 04:17:30;;;;;;;4.00;3.00;;;16.90;91.50;;;;;;4940693;29;20474;-67
2022/05/22 04:20:02;;;;;;;3.50;2.97;;;16.90;92.50;;;;;;4936039;29;20505;-66
2022/05/22 04:22:32;;;;;;;4.13;2.57;;;16.80;92.50;;;;;;4944562;29;20497;-67
2022/05/22 04:25:11;;;;;;;2.30;1.93;;;16.80;93.10;;;;;;4931821;29;20470;-66
2022/05/22 04:27:44;;;;;;;2.50;2.13;;;16.80;93.40;;;;;;4938856;29;20465;-66
2022/05/22 04:30:18;;;;;;;3.37;2.60;;;16.70;93.70;;;;;;4934888;29;20482;-66
2022/05/22 04:32:49;;;;;;;2.50;2.10;;;16.60;94.10;;;;;;4940068;29;20446;-67
2022/05/22 04:35:21;;;;;;;3.40;2.20;;;16.60;94.00;;;;;;4939610;29;20473;-66
2022/05/22 04:37:52;;;;;;;2.80;2.53;;;16.60;94.10;;;;;;4937093;29;20459;-67
2022/05/22 04:40:24;;;;;;;1.93;1.73;;;16.50;94.50;;;;;;4928347;29;20497;-66
2022/05/22 04:42:55;;;;;;;2.93;2.30;;;16.50;94.80;;;;;;4929413;29;20441;-66
2022/05/22 04:45:26;;;;;;;3.40;2.53;;;16.40;95.10;;;;;;4935281;29;20648;-66
2022/05/22 04:47:56;;;;;;;2.40;2.20;;;16.40;95.60;;;;;;4943845;29;20481;-67
2022/05/22 04:50:28;;;;;;;2.93;2.50;;;16.40;95.40;;;;;;4947195;29;20466;-66
2022/05/22 04:52:59;;;;;;;2.80;2.43;;;16.30;96.20;;;;;;4946987;29;21000;-66
2022/05/22 04:55:31;;;;;;;2.50;2.30;;;16.20;96.60;;;;;;4945316;29;20945;-66
2022/05/22 04:58:02;;;;;;;2.23;2.03;;;16.10;97.10;;;;;;4941910;29;20465;-66
2022/05/22 05:00:33;;;;;;;5.77;2.13;;;16.10;97.40;;;;;;4939842;29;20496;-66
2022/05/22 05:03:04;;;;;;;2.73;2.50;;;16.00;97.40;;;;;;4938142;29;21428;-66
2022/05/22 05:05:35;;;;;;;2.00;1.90;;;16.00;97.70;;;;;;4934453;29;20951;-66
2022/05/22 05:08:06;;;;;;;5.87;3.33;;;16.00;97.80;;;;;;4937088;29;20463;-66
2022/05/22 05:10:39;;;;;;;3.10;2.30;;;15.90;98.00;;;;;;4928511;29;20780;-67
2022/05/22 05:13:10;;;;;;;2.83;2.60;;;15.80;98.20;;;;;;4930287;29;20459;-66
2022/05/22 05:15:40;;;;;;;4.27;2.47;;;15.80;98.50;;;;;;4931694;29;20482;-66
2022/05/22 05:18:14;;;;;;;3.07;2.30;;;15.80;98.40;;;;;;4937444;29;20444;-68
2022/05/22 05:20:52;;;;;;;2.30;2.10;;;15.70;98.80;;;;;;4935990;29;20572;-66
2022/05/22 05:23:23;;;;;;;4.40;2.40;;;15.70;99.10;;;;;;4933749;29;20533;-67
2022/05/22 05:25:55;;;;;;;3.60;2.93;;;15.60;99.20;;;;;;4935639;29;20457;-67
2022/05/22 05:28:26;;;;;;;3.07;2.77;;;15.60;99.60;;;;;;4928634;29;20435;-67
2022/05/22 05:30:57;;;;;;;3.77;2.40;;;15.60;99.70;;;;;;4945970;29;20961;-67
2022/05/22 05:33:29;;;;;;;2.60;2.40;;;15.50;99.60;;;;;;4947041;29;20454;-66
2022/05/22 05:36:00;;;;;;;3.17;2.47;;;15.50;99.50;;;;;;4946373;29;20817;-66
2022/05/22 05:38:34;;;;;;;2.80;2.40;;;15.40;99.60;;;;;;4946940;29;20465;-66
2022/05/22 05:41:26;;;;;;;2.40;2.20;;;15.40;99.80;;;;;;4945698;29;20561;-66
2022/05/22 05:43:57;;;;;;;3.43;2.50;;;15.30;99.90;;;;;;4939919;29;20458;-66
2022/05/22 05:46:28;;;;;;;3.50;2.80;;;15.30;99.90;;;;;;4931693;29;20455;-66
2022/05/22 05:48:58;;;;;;;3.07;2.37;;;15.30;99.90;;;;;;4932543;29;20853;-67
2022/05/22 05:51:35;;;;;;;2.57;2.37;;;15.20;99.90;;;;;;4927130;29;20458;-66
2022/05/22 05:54:06;;;;;;;3.03;2.73;;;15.20;99.90;;;;;;4928551;29;20461;-66
2022/05/22 05:56:42;;;;;;;4.23;2.63;;;15.10;99.90;;;;;;4940040;29;20459;-65
2022/05/22 05:59:12;;;;;;;3.97;2.80;;;15.10;99.90;;;;;;4927795;29;20546;-66
2022/05/22 06:01:43;;;;;;;4.50;3.00;;;15.10;99.90;;;;;;4936796;29;20485;-67
2022/05/22 06:04:14;;;;;;;3.37;2.97;;;15.00;99.90;;;;;;4927700;29;20539;-66
2022/05/22 06:06:48;;;;;;;3.20;2.50;;;14.90;99.90;;;;;;4936687;29;20853;-65
2022/05/22 06:09:18;;;;;;;4.27;2.70;;;14.90;99.90;;;;;;4936676;29;20934;-66
2022/05/22 06:11:51;;;;;;;2.93;2.73;;;14.90;99.90;;;;;;4937258;29;20474;-66
2022/05/22 06:14:23;;;;;;;5.10;2.90;;;14.80;99.90;;;;;;4943389;29;20445;-65
2022/05/22 06:16:54;;;;;;;4.80;2.70;;;14.80;99.90;;;;;;4940068;29;20497;-66
2022/05/22 06:22:09;;;;;;;3.03;2.73;;;14.70;99.90;;;;;;4944065;29;20497;-65
2022/05/22 06:24:40;;;;;;;4.47;3.00;;;14.70;99.90;;;;;;4928824;29;20466;-66
2022/05/22 06:27:17;;;;;;;5.97;2.90;;;14.60;99.90;;;;;;4938534;29;20446;-66
2022/05/22 06:29:50;;;;;;;3.90;3.03;;;14.60;99.90;;;;;;4938257;29;20778;-66
2022/05/22 06:32:25;;;;;;;3.30;3.00;;;14.50;99.90;;;;;;4946202;29;20457;-66
2022/05/22 06:34:58;;;;;;;4.27;3.03;;;14.50;99.90;;;;;;4944938;29;20464;-66
2022/05/22 06:37:29;;;;;;;2.77;2.57;;;14.50;99.90;;;;;;4942261;29;21290;-67
2022/05/22 06:40:06;;;;;;;6.10;2.90;;;14.40;99.90;;;;;;4939246;29;20458;-66
2022/05/22 06:42:42;;;;;;;4.20;3.00;;;14.30;99.90;;;;;;4941834;29;20498;-66
2022/05/22 06:45:16;;;;;;;3.40;2.63;;;14.30;99.90;;;;;;4940616;29;20469;-66
2022/05/22 06:47:47;;;;;;;2.67;2.47;;;14.20;99.90;;;;;;4930134;29;20473;-66
2022/05/22 06:50:20;;;;;;;3.53;3.23;;;14.20;99.90;;;;;;4945438;29;20464;-65
2022/05/22 06:52:52;;;;;;;3.20;2.70;;;14.10;99.90;;;;;;4937518;29;20474;-65
2022/05/22 06:55:23;;;;;;;4.60;3.60;;;14.10;99.90;;;;;;4940740;29;20470;-65
2022/05/22 06:57:59;;;;;;;6.57;2.83;;;14.10;99.90;;;;;;4938728;29;20507;-65
2022/05/22 07:00:30;;;;;;;2.93;2.67;;;14.00;99.90;;;;;;4939258;29;20461;-65
2022/05/22 07:03:01;;;;;;;6.13;3.20;;;14.00;99.90;;;;;;4941483;29;20493;-65
2022/05/22 07:05:32;;;;;;;3.43;3.13;;;13.90;99.90;;;;;;4943400;29;20790;-67
2022/05/22 07:08:03;;;;;;;10.00;4.13;;;13.90;99.90;;;;;;4943710;29;20476;-65
2022/05/22 07:13:30;;;;;;;3.30;3.00;;;13.80;99.90;;;;;;4937296;29;20836;-67
2022/05/22 07:16:04;;;;;;;4.17;3.27;;;13.80;99.90;;;;;;4933792;29;20489;-67
2022/05/22 07:18:58;;;;;;;4.57;3.17;;;13.70;99.90;;;;;;4931976;29;20467;-66
2022/05/22 07:21:29;;;;;;;5.27;3.37;;;13.70;99.90;;;;;;4933160;29;20966;-67
2022/05/22 07:24:01;;;;;;;3.13;2.90;;;13.60;99.90;;;;;;4941039;29;20458;-66
2022/05/22 07:26:33;;;;;;;3.53;3.17;;;13.60;99.90;;;;;;4929530;29;20473;-66
2022/05/22 07:29:05;;;;;;;3.53;3.30;;;13.50;99.90;;;;;;4942603;29;20466;-66
2022/05/22 07:31:37;;;;;;;6.23;4.37;;;13.50;99.90;;;;;;4940729;29;20469;-66
2022/05/22 07:34:08;;;;;;;7.83;3.47;;;13.40;99.90;;;;;;4942037;29;20461;-66
2022/05/22 07:36:39;;;;;;;5.23;3.43;;;13.50;99.90;;;;;;4925401;29;20473;-66
2022/05/22 07:39:10;;;;;;;3.30;3.00;;;13.40;99.90;;;;;;4942475;29;20508;-66
2022/05/22 07:41:41;;;;;;;4.50;4.03;;;13.40;99.90;;;;;;4941710;29;20474;-66
2022/05/22 07:44:13;;;;;;;3.97;3.03;;;13.30;99.90;;;;;;4941399;29;20469;-66
2022/05/22 07:46:44;;;;;;;4.37;3.63;;;13.30;99.90;;;;;;4935482;29;20550;-65
2022/05/22 07:50:16;;;;;;;4.93;3.77;;;13.30;99.90;;;;;;4935828;29;20474;-66
2022/05/22 07:52:14;;;;;;;6.20;3.70;;;13.20;99.90;;;;;;4941860;29;20478;-67
2022/05/22 07:54:51;;;;;;;3.90;3.47;;;13.10;99.90;;;;;;4940931;29;20541;-65
2022/05/22 07:57:23;;;;;;;4.47;4.07;;;13.00;99.90;;;;;;4932762;29;20467;-65
2022/05/22 07:59:56;;;;;;;5.80;3.97;;;13.00;99.90;;;;;;4927782;29;20455;-66
2022/05/22 08:02:27;;;;;;;4.70;4.17;;;12.90;99.90;;;;;;4941795;29;20504;-66
2022/05/22 08:04:59;;;;;;;5.30;3.80;;;12.90;99.90;;;;;;4933751;29;20463;-67
2022/05/22 08:07:30;;;;;;;6.10;3.57;;;13.00;99.90;;;;;;4942411;29;20469;-66
2022/05/22 08:10:01;;;;;;;4.13;3.80;;;12.80;99.90;;;;;;4938922;29;20473;-66
2022/05/22 08:12:36;;;;;;;5.57;4.40;;;12.80;99.90;;;;;;4941599;29;20462;-66
2022/05/22 08:15:11;;;;;;;4.10;3.80;;;12.70;99.90;;;;;;4936018;29;20497;-66
2022/05/22 08:17:41;;;;;;;4.63;4.30;;;12.70;99.90;;;;;;4943306;29;20461;-66
2022/05/22 08:20:15;;;;;;;4.53;3.87;;;12.60;99.90;;;;;;4929077;29;20453;-66
2022/05/22 08:22:46;;;;;;;3.97;3.60;;;12.60;99.90;;;;;;4932753;29;20506;-66
2022/05/22 08:25:19;;;;;;;5.70;4.30;;;12.60;99.90;;;;;;4938967;29;20457;-65
2022/05/22 08:27:50;;;;;;;4.20;3.80;;;12.60;99.90;;;;;;4942778;29;20469;-65
2022/05/22 08:30:24;;;;;;;5.73;4.17;;;12.50;99.90;;;;;;4943184;29;20465;-66
2022/05/22 08:32:55;;;;;;;5.53;3.83;;;12.50;99.90;;;;;;4943486;29;20477;-65
2022/05/22 08:35:29;;;;;;;4.57;3.57;;;12.50;99.90;;;;;;4946830;29;20473;-66
2022/05/22 08:38:00;;;;;;;4.33;3.90;;;12.50;99.90;;;;;;4942120;29;20474;-66
2022/05/22 08:40:41;;;;;;;6.53;4.57;;;12.50;99.90;;;;;;4933427;29;20592;-65
2022/05/22 08:43:16;;;;;;;4.37;3.97;;;12.50;99.90;;;;;;4938682;29;20509;-65
2022/05/22 08:45:54;;;;;;;4.57;4.10;;;12.50;99.90;;;;;;4934360;29;20782;-65
2022/05/22 08:48:31;;;;;;;6.07;4.40;;;12.50;99.90;;;;;;4931324;29;20546;-65
2022/05/22 08:51:06;;;;;;;4.43;4.00;;;12.40;99.90;;;;;;4934689;29;20557;-66
2022/05/22 08:53:43;;;;;;;5.20;4.40;;;12.40;99.90;;;;;;4946031;29;20469;-67
2022/05/22 08:59:09;;;;;;;4.40;4.00;;;12.30;99.90;;;;;;4937927;29;20465;-67
2022/05/22 09:01:50;;;;;;;7.80;4.50;;;12.10;99.90;;;;;;4935198;29;20475;-66
2022/05/22 09:04:39;;;;;;;5.03;4.47;;;12.00;99.90;;;;;;4941274;29;20489;-66
2022/05/22 09:07:20;;;;;;;4.57;4.17;;;12.00;99.90;;;;;;4934853;29;20973;-66
2022/05/22 09:09:58;;;;;;;7.43;5.27;;;12.00;99.90;;;;;;4942318;29;20489;-66
2022/05/22 09:12:54;;;;;;;4.60;4.20;;;11.90;99.90;;;;;;4938676;29;20494;-67
2022/05/22 09:15:47;;;;;;;8.33;5.00;;;12.00;99.90;;;;;;4941420;29;20497;-66
2022/05/22 09:18:30;;;;;;;4.73;4.37;;;11.90;99.90;;;;;;4943642;29;20827;-66
2022/05/22 09:21:12;;;;;;;5.37;4.33;;;12.00;99.90;;;;;;4942507;29;20466;-66
2022/05/22 09:23:59;;;;;;;5.40;4.90;;;11.90;99.90;;;;;;4933115;29;20846;-66
2022/05/22 09:26:48;;;;;;;4.87;4.33;;;11.80;99.90;;;;;;4943411;29;20470;-66
2022/05/22 09:29:32;;;;;;;7.17;4.73;;;11.80;99.90;;;;;;4945719;29;20478;-67
2022/05/22 09:32:15;;;;;;;4.80;4.10;;;11.70;99.90;;;;;;4943464;29;20457;-66
2022/05/22 09:34:57;;;;;;;5.70;4.67;;;11.70;99.90;;;;;;4945163;29;20469;-66
2022/05/22 09:37:40;;;;;;;6.73;4.17;;;11.70;99.90;;;;;;4935508;29;20477;-66
2022/05/22 09:40:30;;;;;;;7.43;4.70;;;11.60;99.90;;;;;;4944715;29;20608;-66
2022/05/22 09:43:44;;;;;;;5.50;4.90;;;11.60;99.90;;;;;;4939940;29;20506;-67
2022/05/22 09:46:37;;;;;;;5.17;4.37;;;11.60;99.90;;;;;;4942839;29;20461;-66
2022/05/22 09:49:27;;;;;;;4.50;4.10;;;11.50;99.90;;;;;;4935795;29;20457;-66
2022/05/22 09:52:10;;;;;;;5.53;4.27;;;11.50;99.90;;;;;;4945998;29;20474;-67
2022/05/22 09:54:54;;;;;;;8.00;4.93;;;11.50;99.90;;;;;;4932600;29;20471;-66
2022/05/22 09:57:41;;;;;;;5.43;4.73;;;11.50;99.90;;;;;;4941643;29;20581;-67
2022/05/22 10:00:15;;;;;;;4.77;4.37;;;11.50;99.90;;;;;;4932484;29;20534;-66
2022/05/22 10:03:00;;;;;;;5.17;4.67;;;11.40;99.90;;;;;;4942538;29;20469;-67
2022/05/22 10:05:49;;;;;;;11.43;4.87;;;11.40;99.90;;;;;;4934746;29;20498;-67
2022/05/22 10:08:32;;;;;;;5.17;4.57;;;11.30;99.90;;;;;;4928847;29;20474;-67
2022/05/22 10:11:09;;;;;;;6.53;4.50;;;11.20;99.90;;;;;;4942508;29;20481;-67
2022/05/22 10:13:51;;;;;;;5.83;4.53;;;11.10;99.90;;;;;;4935865;29;20466;-66
2022/05/22 10:16:34;;;;;;;5.30;4.80;;;11.10;99.90;;;;;;4942552;29;20485;-66
2022/05/22 10:19:23;;;;;;;5.93;4.83;;;11.00;99.90;;;;;;4933026;29;20492;-67
2022/05/22 10:22:01;;;;;;;5.23;4.73;;;11.00;99.90;;;;;;4937038;29;20481;-66
2022/05/22 10:24:56;;;;;;;6.20;4.93;;;11.00;99.90;;;;;;4932635;29;20562;-67
2022/05/22 10:27:48;;;;;;;4.70;4.30;;;10.90;99.90;;;;;;4931391;29;20466;-66
2022/05/22 10:30:25;;;;;;;6.33;5.17;;;10.80;99.90;;;;;;4936252;29;20478;-66
2022/05/22 10:33:02;;;;;;;6.47;5.60;;;10.70;99.90;;;;;;4937215;29;20525;-66
2022/05/22 10:35:40;;;;;;;7.80;5.10;;;10.60;99.90;;;;;;4941851;29;20473;-66
2022/05/22 10:38:18;;;;;;;6.40;5.00;;;10.60;99.90;;;;;;4940296;29;20949;-65
2022/05/22 10:43:44;;;;;;;7.23;5.10;;;10.60;99.90;;;;;;4938682;29;20520;-66
2022/05/22 10:46:15;;;;;;;5.13;4.67;;;10.50;99.90;;;;;;4929385;29;20562;-66
2022/05/22 10:48:50;;;;;;;5.67;5.17;;;10.40;99.90;;;;;;4935863;29;21017;-67
2022/05/22 10:51:25;;;;;;;6.80;5.60;;;10.30;99.90;;;;;;4933478;29;20487;-66
2022/05/22 10:53:58;;;;;;;6.18;5.57;;;10.30;99.90;;;;;;4930898;29;20918;-66
2022/05/22 10:56:34;;;;;;;7.57;5.20;;;10.30;99.90;;;;;;4936493;29;20217;-66
2022/05/22 10:59:08;;;;;;;7.13;6.00;;;10.20;99.90;;;;;;4930518;29;20497;-66
2022/05/22 11:01:41;;;;;;;6.03;5.30;;;10.20;99.90;;;;;;4940188;29;20529;-66
2022/05/22 11:04:14;;;;;;;6.27;5.67;;;10.20;99.90;;;;;;4938005;29;20562;-66
2022/05/22 11:06:56;;;;;;;7.70;5.20;;;10.10;99.90;;;;;;4928905;29;20462;-66
2022/05/22 11:09:29;;;;;;;8.70;5.70;;;10.10;99.90;;;;;;4939877;29;20485;-66
2022/05/22 11:12:09;;;;;;;7.60;5.30;;;10.10;99.90;;;;;;4942705;29;20480;-66
2022/05/22 11:14:40;;;;;;;5.90;5.40;;;10.10;99.90;;;;;;4938268;29;20473;-67
2022/05/22 11:17:12;;;;;;;6.53;5.77;;;10.00;99.90;;;;;;4943024;29;20477;-66
2022/05/22 11:19:46;;;;;;;6.17;5.57;;;10.00;99.90;;;;;;4941697;29;20525;-67
2022/05/22 11:22:35;;;;;;;6.10;5.50;;;10.00;99.90;;;;;;4943769;29;20466;-67
2022/05/22 11:25:25;;;;;;;8.57;5.82;;;9.90;99.90;;;;;;4929714;29;20240;-67
2022/05/22 11:28:10;;;;;;;6.97;5.88;;;9.90;99.90;;;;;;4936550;29;20195;-67
2022/05/22 11:30:49;;;;;;;10.05;5.55;;;9.80;99.90;;;;;;4940782;29;20217;-67
2022/05/22 11:33:42;;;;;;;6.32;5.38;;;9.80;99.90;;;;;;4942404;29;20260;-66
2022/05/22 11:36:29;;;;;;;6.60;5.27;;;9.80;99.90;;;;;;4943466;29;20210;-66
2022/05/22 11:39:18;;;;;;;8.00;6.50;;;9.80;99.90;;;;;;4932193;29;20462;-66
2022/05/22 11:41:54;;;;;;;6.47;5.80;;;9.80;99.90;;;;;;4940838;29;20479;-66
2022/05/22 11:45:01;;;;;;;6.45;5.85;;;9.80;99.90;;;;;;4936593;29;20513;-66
2022/05/22 11:48:28;;;;;;;6.57;5.90;;;9.70;99.90;;;;;;4940909;29;20551;-66
2022/05/22 11:51:12;;;;;;;7.28;5.07;;;9.60;99.90;;;;;;4848107;29;20217;-66
2022/05/22 11:54:02;;;;;;;6.93;5.80;;;9.60;99.90;;;;;;4836579;29;20229;-66
2022/05/22 11:56:46;;;;;;;6.68;5.25;;;9.60;99.90;;;;;;4840184;29;20229;-66
2022/05/22 11:59:32;;;;;;;6.72;6.05;;;9.60;99.90;;;;;;4840742;29;20223;-66
2022/05/22 12:02:13;;;;;;;6.75;6.10;;;9.60;99.90;;;;;;4847464;29;20326;-67
2022/05/22 12:04:58;;;;;;;9.43;6.20;;;9.50;99.90;;;;;;4844132;29;20245;-67
2022/05/22 12:08:06;;;;;;;11.00;6.30;;;9.50;99.90;;;;;;4849122;29;20228;-66
2022/05/22 12:10:48;;;;;;;8.02;5.90;;;9.40;99.90;;;;;;4831581;29;20454;-66
2022/05/22 12:13:28;;;;;;;6.80;5.60;;;9.40;99.90;;;;;;4848108;29;20241;-67
2022/05/22 12:16:07;;;;;;;8.70;5.80;;;9.40;99.90;;;;;;4840734;29;21065;-66
2022/05/22 12:18:52;;;;;;;5.35;4.72;;;9.30;99.90;;;;;;4846012;29;20307;-66
2022/05/22 12:21:36;;;;;;;7.85;5.85;;;9.30;99.90;;;;;;4845253;29;20213;-66
2022/05/22 12:24:15;;;;;;;8.68;6.10;;;9.20;99.90;;;;;;4851339;29;20212;-66
2022/05/22 12:26:46;;;;;;;6.63;6.00;;;9.10;99.90;;;;;;4909047;29;20285;-67
2022/05/22 12:29:25;;;;;;;8.13;5.65;;;9.10;99.90;;;;;;4941364;29;21075;-66
2022/05/22 12:31:57;;;;;;;8.93;6.20;;;9.10;99.90;;;;;;4935392;29;20206;-67
2022/05/22 12:34:37;;;;;;;6.40;5.50;;;9.10;99.90;;;;;;4931208;29;20271;-67
2022/05/22 12:37:27;;;;;;;6.35;5.68;;;9.20;99.90;;;;;;4940497;29;20274;-66
2022/05/22 12:40:09;;;;;;;5.90;5.30;;;9.10;99.90;;;;;;4942907;29;20662;-66
2022/05/22 12:42:48;;;;;;;8.55;5.97;;;9.10;99.90;;;;;;4944480;29;20214;-66
2022/05/22 12:45:20;;;;;;;8.65;7.05;;;9.10;99.90;;;;;;4946243;29;20280;-66
2022/05/22 12:47:53;;;;;;;9.30;5.95;;;9.10;99.90;;;;;;4938364;29;20217;-66
2022/05/22 12:50:37;;;;;;;8.65;7.45;;;9.10;99.90;;;;;;4940995;29;20254;-66
2022/05/22 12:53:20;;;;;;;6.90;6.20;;;9.20;99.90;;;;;;4945177;29;20217;-66
2022/05/22 12:55:51;;;;;;;6.20;5.43;;;9.00;99.90;;;;;;4929531;29;20267;-66
2022/05/22 12:58:38;;;;;;;8.05;5.93;;;9.10;99.90;;;;;;4940829;29;20235;-66
2022/05/22 13:01:29;;;;;;;7.72;6.25;;;9.00;99.90;;;;;;4939862;29;20207;-66
2022/05/22 13:04:03;;;;;;;8.00;6.10;;;9.00;99.90;;;;;;4940142;29;20214;-66
2022/05/22 13:06:44;;;;;;;6.88;6.20;;;9.00;99.90;;;;;;4945548;29;20371;-66
2022/05/22 13:09:25;;;;;;;8.75;6.38;;;9.00;99.90;;;;;;4937445;29;20214;-66
2022/05/22 13:12:02;;;;;;;6.78;5.80;;;9.00;99.90;;;;;;4946157;29;20238;-66
2022/05/22 13:14:40;;;;;;;6.95;6.00;;;9.00;99.90;;;;;;4943491;29;20205;-66
2022/05/22 13:17:13;;;;;;;7.40;6.20;;;9.00;99.90;;;;;;4937076;29;20207;-67
2022/05/22 13:19:52;;;;;;;9.63;5.95;;;9.10;99.90;;;;;;4939668;29;20225;-66
2022/05/22 13:22:33;;;;;;;8.18;6.80;;;9.10;99.90;;;;;;4940663;29;20216;-66
2022/05/22 13:25:07;;;;;;;7.75;6.40;;;9.20;99.90;;;;;;4932325;29;20234;-67
2022/05/22 13:27:41;;;;;;;7.43;5.65;;;9.20;99.90;;;;;;4933324;29;20213;-67
2022/05/22 13:30:25;;;;;;;6.13;5.63;;;9.20;99.90;;;;;;4932299;29;20214;-67
2022/05/22 13:33:01;;;;;;;8.32;6.40;;;9.20;99.90;;;;;;4939333;29;20458;-68
2022/05/22 13:35:35;;;;;;;8.55;6.85;;;9.30;99.90;;;;;;4939251;29;20204;-66
2022/05/22 13:38:13;;;;;;;11.98;7.47;;;9.30;99.90;;;;;;4929431;29;20265;-66
2022/05/22 13:40:52;;;;;;;8.70;7.57;;;9.40;99.90;;;;;;4926217;29;20213;-66
2022/05/22 13:43:52;;;;;;;10.13;7.80;;;9.50;99.90;;;;;;4931595;29;20214;-65
2022/05/22 13:47:04;;;;;;;11.52;9.00;;;9.60;99.90;;;;;;4929926;29;20227;-65